sensor_id;sensor_type;location;lat;lon;timestamp;temperature;humidity
48988;DHT22;34799;51.440;-2.534;2023-04-03T00:01:36;5.30;99.90
48988;DHT22;34799;51.440;-2.534;2023-04-03T00:04:16;6.40;99.90
48988;DHT22;34799;51.440;-2.534;2023-04-03T00:06:47;6.30;99.90
48988;DHT22;34799;51.440;-2.534;2023-04-03T00:09:14;6.10;99.90
48988;DHT22;34799;51.440;-2.534;2023-04-03T00:11:45;6.20;99.90
48988;DHT22;34799;51.440;-2.534;2023-04-03T00:14:15;6.20;99.90
48988;DHT22;34799;51.440;-2.534;2023-04-03T00:19:11;6.10;99.90
48988;DHT22;34799;51.440;-2.534;2023-04-03T00:21:42;6.20;99.90
48988;DHT22;34799;51.440;-2.534;2023-04-03T00:26:39;6.20;99.90
48988;DHT22;34799;51.440;-2.534;2023-04-03T00:29:06;6.40;99.90
48988;DHT22;34799;51.440;-2.534;2023-04-03T00:31:33;8.90;99.90
48988;DHT22;34799;51.440;-2.534;2023-04-03T00:34:01;8.60;99.90
48988;DHT22;34799;51.440;-2.534;2023-04-03T00:36:33;6.10;99.90
48988;DHT22;34799;51.440;-2.534;2023-04-03T00:41:28;6.20;99.90
48988;DHT22;34799;51.440;-2.534;2023-04-03T00:43:59;8.50;99.90
48988;DHT22;34799;51.440;-2.534;2023-04-03T00:51:24;6.30;99.90
48988;DHT22;34799;51.440;-2.534;2023-04-03T00:53:58;8.30;99.90
48988;DHT22;34799;51.440;-2.534;2023-04-03T00:56:27;6.20;99.90
48988;DHT22;34799;51.440;-2.534;2023-04-03T00:59:06;6.20;99.90
48988;DHT22;34799;51.440;-2.534;2023-04-03T01:01:38;4.80;99.90
48988;DHT22;34799;51.440;-2.534;2023-04-03T01:04:40;6.30;99.90
48988;DHT22;34799;51.440;-2.534;2023-04-03T01:07:17;6.10;99.90
48988;DHT22;34799;51.440;-2.534;2023-04-03T01:09:52;6.00;99.90
48988;DHT22;34799;51.440;-2.534;2023-04-03T01:12:29;5.90;99.90
48988;DHT22;34799;51.440;-2.534;2023-04-03T01:15:09;6.10;99.90
48988;DHT22;34799;51.440;-2.534;2023-04-03T01:25:47;5.90;99.90
48988;DHT22;34799;51.440;-2.534;2023-04-03T01:28:21;5.60;99.90
48988;DHT22;34799;51.440;-2.534;2023-04-03T01:33:45;5.50;99.90
48988;DHT22;34799;51.440;-2.534;2023-04-03T01:36:20;5.30;99.90
48988;DHT22;34799;51.440;-2.534;2023-04-03T01:38:48;5.60;99.90
48988;DHT22;34799;51.440;-2.534;2023-04-03T01:41:16;5.40;99.90
48988;DHT22;34799;51.440;-2.534;2023-04-03T01:43:50;5.90;99.90
48988;DHT22;34799;51.440;-2.534;2023-04-03T01:46:24;5.40;99.90
48988;DHT22;34799;51.440;-2.534;2023-04-03T01:56:14;5.30;99.90
48988;DHT22;34799;51.440;-2.534;2023-04-03T02:01:11;5.40;99.90
48988;DHT22;34799;51.440;-2.534;2023-04-03T02:03:39;8.60;99.90
48988;DHT22;34799;51.440;-2.534;2023-04-03T02:06:06;5.30;99.90
48988;DHT22;34799;51.440;-2.534;2023-04-03T02:16:06;5.40;99.90
48988;DHT22;34799;51.440;-2.534;2023-04-03T02:18:38;5.40;99.90
48988;DHT22;34799;51.440;-2.534;2023-04-03T02:23:34;5.40;99.90
48988;DHT22;34799;51.440;-2.534;2023-04-03T02:26:14;5.70;99.90
48988;DHT22;34799;51.440;-2.534;2023-04-03T02:31:16;5.40;99.90
48988;DHT22;34799;51.440;-2.534;2023-04-03T02:33:48;5.30;99.90
48988;DHT22;34799;51.440;-2.534;2023-04-03T02:36:18;5.30;99.90
48988;DHT22;34799;51.440;-2.534;2023-04-03T02:38:51;6.00;99.90
48988;DHT22;34799;51.440;-2.534;2023-04-03T02:41:19;5.50;99.90
48988;DHT22;34799;51.440;-2.534;2023-04-03T02:52:35;5.40;99.90
48988;DHT22;34799;51.440;-2.534;2023-04-03T02:55:02;5.40;99.90
48988;DHT22;34799;51.440;-2.534;2023-04-03T03:02:28;5.20;99.90
48988;DHT22;34799;51.440;-2.534;2023-04-03T03:04:55;5.00;99.90
48988;DHT22;34799;51.440;-2.534;2023-04-03T03:07:23;5.10;99.90
48988;DHT22;34799;51.440;-2.534;2023-04-03T03:12:22;5.20;99.90
48988;DHT22;34799;51.440;-2.534;2023-04-03T03:14:51;5.80;99.90
48988;DHT22;34799;51.440;-2.534;2023-04-03T03:17:18;8.00;99.90
48988;DHT22;34799;51.440;-2.534;2023-04-03T03:19:46;5.20;99.90
48988;DHT22;34799;51.440;-2.534;2023-04-03T03:24:45;5.20;99.90
48988;DHT22;34799;51.440;-2.534;2023-04-03T03:32:09;5.20;99.90
48988;DHT22;34799;51.440;-2.534;2023-04-03T03:39:36;5.10;99.90
48988;DHT22;34799;51.440;-2.534;2023-04-03T03:42:03;4.90;99.90
48988;DHT22;34799;51.440;-2.534;2023-04-03T03:46:59;5.30;99.90
48988;DHT22;34799;51.440;-2.534;2023-04-03T03:49:29;5.20;99.90
48988;DHT22;34799;51.440;-2.534;2023-04-03T03:51:57;5.00;99.90
48988;DHT22;34799;51.440;-2.534;2023-04-03T03:54:24;5.10;99.90
48988;DHT22;34799;51.440;-2.534;2023-04-03T03:56:51;4.90;99.90
48988;DHT22;34799;51.440;-2.534;2023-04-03T03:59:22;5.00;99.90
48988;DHT22;34799;51.440;-2.534;2023-04-03T04:04:23;5.10;99.90
48988;DHT22;34799;51.440;-2.534;2023-04-03T04:06:51;4.10;99.90
48988;DHT22;34799;51.440;-2.534;2023-04-03T04:11:48;5.10;99.90
48988;DHT22;34799;51.440;-2.534;2023-04-03T04:14:21;7.10;99.90
48988;DHT22;34799;51.440;-2.534;2023-04-03T04:19:23;5.00;99.90
48988;DHT22;34799;51.440;-2.534;2023-04-03T04:21:54;4.90;99.90
48988;DHT22;34799;51.440;-2.534;2023-04-03T04:31:52;4.60;99.90
48988;DHT22;34799;51.440;-2.534;2023-04-03T04:34:22;4.70;99.90
48988;DHT22;34799;51.440;-2.534;2023-04-03T04:41:45;4.60;99.90
48988;DHT22;34799;51.440;-2.534;2023-04-03T04:44:13;5.80;99.90
48988;DHT22;34799;51.440;-2.534;2023-04-03T04:49:10;6.20;99.90
48988;DHT22;34799;51.440;-2.534;2023-04-03T04:54:18;4.60;99.90
48988;DHT22;34799;51.440;-2.534;2023-04-03T04:59:18;4.60;99.90
48988;DHT22;34799;51.440;-2.534;2023-04-03T05:01:49;4.60;99.90
48988;DHT22;34799;51.440;-2.534;2023-04-03T05:06:52;5.10;99.90
48988;DHT22;34799;51.440;-2.534;2023-04-03T05:09:26;4.60;99.90
48988;DHT22;34799;51.440;-2.534;2023-04-03T05:11:59;4.50;99.90
48988;DHT22;34799;51.440;-2.534;2023-04-03T05:14:32;4.40;99.90
48988;DHT22;34799;51.440;-2.534;2023-04-03T05:17:07;4.60;99.90
48988;DHT22;34799;51.440;-2.534;2023-04-03T05:19:38;5.20;99.90
48988;DHT22;34799;51.440;-2.534;2023-04-03T05:22:08;4.40;99.90
48988;DHT22;34799;51.440;-2.534;2023-04-03T05:24:37;4.40;99.90
48988;DHT22;34799;51.440;-2.534;2023-04-03T05:27:13;4.50;99.90
48988;DHT22;34799;51.440;-2.534;2023-04-03T05:32:23;5.40;99.90
48988;DHT22;34799;51.440;-2.534;2023-04-03T05:37:27;2.80;99.90
48988;DHT22;34799;51.440;-2.534;2023-04-03T05:40:04;4.30;99.90
48988;DHT22;34799;51.440;-2.534;2023-04-03T05:52:36;3.90;99.90
48988;DHT22;34799;51.440;-2.534;2023-04-03T05:55:09;4.20;99.90
48988;DHT22;34799;51.440;-2.534;2023-04-03T05:57:36;4.30;99.90
48988;DHT22;34799;51.440;-2.534;2023-04-03T06:00:06;4.10;99.90
48988;DHT22;34799;51.440;-2.534;2023-04-03T06:07:49;4.10;99.90
48988;DHT22;34799;51.440;-2.534;2023-04-03T06:10:24;4.80;99.90
48988;DHT22;34799;51.440;-2.534;2023-04-03T06:12:52;5.40;99.90
48988;DHT22;34799;51.440;-2.534;2023-04-03T06:17:51;4.10;99.90
48988;DHT22;34799;51.440;-2.534;2023-04-03T06:25:25;4.20;99.90
48988;DHT22;34799;51.440;-2.534;2023-04-03T06:27:52;4.20;99.90
48988;DHT22;34799;51.440;-2.534;2023-04-03T06:32:52;4.40;99.90
48988;DHT22;34799;51.440;-2.534;2023-04-03T06:35:19;4.60;99.90
48988;DHT22;34799;51.440;-2.534;2023-04-03T06:40:22;4.70;99.90
48988;DHT22;34799;51.440;-2.534;2023-04-03T06:42:50;4.80;99.90
48988;DHT22;34799;51.440;-2.534;2023-04-03T06:45:22;4.90;99.90
48988;DHT22;34799;51.440;-2.534;2023-04-03T06:47:50;4.60;99.90
48988;DHT22;34799;51.440;-2.534;2023-04-03T06:50:18;4.90;99.90
48988;DHT22;34799;51.440;-2.534;2023-04-03T06:55:14;3.80;99.90
48988;DHT22;34799;51.440;-2.534;2023-04-03T06:57:41;4.80;99.90
48988;DHT22;34799;51.440;-2.534;2023-04-03T07:00:10;4.50;99.90
48988;DHT22;34799;51.440;-2.534;2023-04-03T07:02:37;4.80;99.90
48988;DHT22;34799;51.440;-2.534;2023-04-03T07:05:05;4.50;99.90
48988;DHT22;34799;51.440;-2.534;2023-04-03T07:10:02;4.50;99.90
48988;DHT22;34799;51.440;-2.534;2023-04-03T07:14:58;4.30;99.90
48988;DHT22;34799;51.440;-2.534;2023-04-03T07:22:23;4.60;99.90
48988;DHT22;34799;51.440;-2.534;2023-04-03T07:24:51;4.40;99.90
48988;DHT22;34799;51.440;-2.534;2023-04-03T07:27:20;4.80;99.90
48988;DHT22;34799;51.440;-2.534;2023-04-03T07:29:47;4.80;99.90
48988;DHT22;34799;51.440;-2.534;2023-04-03T07:32:18;4.60;99.90
48988;DHT22;34799;51.440;-2.534;2023-04-03T07:34:49;4.60;99.90
48988;DHT22;34799;51.440;-2.534;2023-04-03T07:45:03;5.00;99.90
48988;DHT22;34799;51.440;-2.534;2023-04-03T07:47:36;7.60;99.90
48988;DHT22;34799;51.440;-2.534;2023-04-03T07:52:38;5.10;99.90
48988;DHT22;34799;51.440;-2.534;2023-04-03T07:55:17;5.40;99.90
48988;DHT22;34799;51.440;-2.534;2023-04-03T07:58:00;5.40;99.90
48988;DHT22;34799;51.440;-2.534;2023-04-03T08:00:27;5.80;99.90
48988;DHT22;34799;51.440;-2.534;2023-04-03T08:02:59;5.20;99.90
48988;DHT22;34799;51.440;-2.534;2023-04-03T08:05:27;5.40;99.90
48988;DHT22;34799;51.440;-2.534;2023-04-03T08:08:02;5.40;99.90
48988;DHT22;34799;51.440;-2.534;2023-04-03T08:10:33;5.60;99.90
48988;DHT22;34799;51.440;-2.534;2023-04-03T08:13:14;5.70;99.90
48988;DHT22;34799;51.440;-2.534;2023-04-03T08:15:44;5.00;99.90
48988;DHT22;34799;51.440;-2.534;2023-04-03T08:18:15;5.80;99.90
48988;DHT22;34799;51.440;-2.534;2023-04-03T08:20:44;8.00;99.90
48988;DHT22;34799;51.440;-2.534;2023-04-03T08:23:21;8.30;99.90
48988;DHT22;34799;51.440;-2.534;2023-04-03T08:25:49;6.30;99.90
48988;DHT22;34799;51.440;-2.534;2023-04-03T08:28:31;8.80;99.90
48988;DHT22;34799;51.440;-2.534;2023-04-03T08:31:06;6.20;99.90
48988;DHT22;34799;51.440;-2.534;2023-04-03T08:33:34;6.30;99.90
48988;DHT22;34799;51.440;-2.534;2023-04-03T08:36:20;6.60;99.90
48988;DHT22;34799;51.440;-2.534;2023-04-03T08:38:50;6.50;99.90
48988;DHT22;34799;51.440;-2.534;2023-04-03T08:41:35;6.50;99.90
48988;DHT22;34799;51.440;-2.534;2023-04-03T08:49:47;6.90;99.90
48988;DHT22;34799;51.440;-2.534;2023-04-03T08:52:41;6.90;99.90
48988;DHT22;34799;51.440;-2.534;2023-04-03T08:55:34;7.30;99.90
48988;DHT22;34799;51.440;-2.534;2023-04-03T08:58:20;7.40;99.90
48988;DHT22;34799;51.440;-2.534;2023-04-03T09:01:26;7.40;99.90
48988;DHT22;34799;51.440;-2.534;2023-04-03T09:03:53;7.70;99.90
48988;DHT22;34799;51.440;-2.534;2023-04-03T09:06:56;7.40;99.90
48988;DHT22;34799;51.440;-2.534;2023-04-03T09:09:38;7.30;99.90
48988;DHT22;34799;51.440;-2.534;2023-04-03T09:12:28;7.40;99.90
48988;DHT22;34799;51.440;-2.534;2023-04-03T09:15:20;7.60;99.90
48988;DHT22;34799;51.440;-2.534;2023-04-03T09:18:20;7.60;99.90
48988;DHT22;34799;51.440;-2.534;2023-04-03T09:21:03;8.10;99.90
48988;DHT22;34799;51.440;-2.534;2023-04-03T09:23:51;7.90;99.90
48988;DHT22;34799;51.440;-2.534;2023-04-03T09:26:29;7.80;99.90
48988;DHT22;34799;51.440;-2.534;2023-04-03T09:29:30;8.20;99.90
48988;DHT22;34799;51.440;-2.534;2023-04-03T09:32:28;7.80;99.90
48988;DHT22;34799;51.440;-2.534;2023-04-03T09:35:19;7.70;99.90
48988;DHT22;34799;51.440;-2.534;2023-04-03T09:38:01;8.00;99.90
48988;DHT22;34799;51.440;-2.534;2023-04-03T09:40:39;7.80;99.90
48988;DHT22;34799;51.440;-2.534;2023-04-03T09:45:56;8.20;99.90
48988;DHT22;34799;51.440;-2.534;2023-04-03T09:49:02;8.30;99.90
48988;DHT22;34799;51.440;-2.534;2023-04-03T09:51:33;6.60;99.90
48988;DHT22;34799;51.440;-2.534;2023-04-03T09:54:33;8.60;99.90
48988;DHT22;34799;51.440;-2.534;2023-04-03T09:57:20;8.70;99.90
48988;DHT22;34799;51.440;-2.534;2023-04-03T10:00:00;8.60;99.90
48988;DHT22;34799;51.440;-2.534;2023-04-03T10:02:42;8.90;99.90
48988;DHT22;34799;51.440;-2.534;2023-04-03T10:05:46;8.90;99.90
48988;DHT22;34799;51.440;-2.534;2023-04-03T10:09:06;9.20;99.90
48988;DHT22;34799;51.440;-2.534;2023-04-03T10:12:11;9.20;99.90
48988;DHT22;34799;51.440;-2.534;2023-04-03T10:14:54;9.10;99.90
48988;DHT22;34799;51.440;-2.534;2023-04-03T10:18:01;9.20;99.90
48988;DHT22;34799;51.440;-2.534;2023-04-03T10:20:48;9.00;99.90
48988;DHT22;34799;51.440;-2.534;2023-04-03T10:23:21;9.00;99.90
48988;DHT22;34799;51.440;-2.534;2023-04-03T10:33:47;9.40;99.90
48988;DHT22;34799;51.440;-2.534;2023-04-03T10:36:50;9.70;99.90
48988;DHT22;34799;51.440;-2.534;2023-04-03T10:40:02;9.70;99.90
48988;DHT22;34799;51.440;-2.534;2023-04-03T10:43:43;10.00;99.90
48988;DHT22;34799;51.440;-2.534;2023-04-03T10:54:24;10.50;99.90
48988;DHT22;34799;51.440;-2.534;2023-04-03T10:57:03;10.50;99.90
48988;DHT22;34799;51.440;-2.534;2023-04-03T10:59:55;10.50;99.90
48988;DHT22;34799;51.440;-2.534;2023-04-03T11:02:28;12.10;99.90
48988;DHT22;34799;51.440;-2.534;2023-04-03T11:05:21;10.80;99.90
48988;DHT22;34799;51.440;-2.534;2023-04-03T11:07:56;10.80;99.90
48988;DHT22;34799;51.440;-2.534;2023-04-03T11:10:37;10.60;99.90
48988;DHT22;34799;51.440;-2.534;2023-04-03T11:15:59;11.10;99.90
48988;DHT22;34799;51.440;-2.534;2023-04-03T11:18:54;10.70;99.90
48988;DHT22;34799;51.440;-2.534;2023-04-03T11:21:35;11.70;99.90
48988;DHT22;34799;51.440;-2.534;2023-04-03T11:24:25;11.90;99.90
48988;DHT22;34799;51.440;-2.534;2023-04-03T11:26:55;12.20;99.90
48988;DHT22;34799;51.440;-2.534;2023-04-03T11:29:36;12.30;99.90
48988;DHT22;34799;51.440;-2.534;2023-04-03T11:32:27;12.10;99.90
48988;DHT22;34799;51.440;-2.534;2023-04-03T11:35:01;12.60;99.90
48988;DHT22;34799;51.440;-2.534;2023-04-03T11:37:46;11.50;99.90
48988;DHT22;34799;51.440;-2.534;2023-04-03T11:40:40;11.80;99.90
48988;DHT22;34799;51.440;-2.534;2023-04-03T11:43:29;11.80;99.90
48988;DHT22;34799;51.440;-2.534;2023-04-03T11:46:07;11.70;99.90
48988;DHT22;34799;51.440;-2.534;2023-04-03T11:53:47;11.70;99.90
48988;DHT22;34799;51.440;-2.534;2023-04-03T12:01:51;11.80;99.90
48988;DHT22;34799;51.440;-2.534;2023-04-03T12:04:26;11.80;99.90
48988;DHT22;34799;51.440;-2.534;2023-04-03T12:07:18;12.10;99.90
48988;DHT22;34799;51.440;-2.534;2023-04-03T12:12:31;11.60;99.90
48988;DHT22;34799;51.440;-2.534;2023-04-03T12:15:41;12.10;99.90
48988;DHT22;34799;51.440;-2.534;2023-04-03T12:21:14;11.80;99.90
48988;DHT22;34799;51.440;-2.534;2023-04-03T12:29:51;12.50;99.90
48988;DHT22;34799;51.440;-2.534;2023-04-03T12:44:50;12.70;99.90
48988;DHT22;34799;51.440;-2.534;2023-04-03T12:47:45;12.60;99.90
48988;DHT22;34799;51.440;-2.534;2023-04-03T12:50:32;12.70;99.90
48988;DHT22;34799;51.440;-2.534;2023-04-03T12:53:24;12.80;99.90
48988;DHT22;34799;51.440;-2.534;2023-04-03T12:56:27;12.70;99.90
48988;DHT22;34799;51.440;-2.534;2023-04-03T13:02:08;12.80;99.90
48988;DHT22;34799;51.440;-2.534;2023-04-03T13:04:51;12.80;99.90
48988;DHT22;34799;51.440;-2.534;2023-04-03T13:07:42;12.80;99.90
48988;DHT22;34799;51.440;-2.534;2023-04-03T13:10:18;12.60;99.90
48988;DHT22;34799;51.440;-2.534;2023-04-03T13:13:07;12.90;99.90
48988;DHT22;34799;51.440;-2.534;2023-04-03T13:15:44;13.00;99.90
48988;DHT22;34799;51.440;-2.534;2023-04-03T13:18:34;13.00;99.90
48988;DHT22;34799;51.440;-2.534;2023-04-03T13:21:33;13.10;99.90
48988;DHT22;34799;51.440;-2.534;2023-04-03T13:24:09;13.00;99.90
48988;DHT22;34799;51.440;-2.534;2023-04-03T13:29:36;13.10;99.90
48988;DHT22;34799;51.440;-2.534;2023-04-03T13:32:06;13.40;99.90
48988;DHT22;34799;51.440;-2.534;2023-04-03T13:34:41;13.20;99.90
48988;DHT22;34799;51.440;-2.534;2023-04-03T13:37:31;13.30;99.90
48988;DHT22;34799;51.440;-2.534;2023-04-03T13:42:37;13.40;99.90
48988;DHT22;34799;51.440;-2.534;2023-04-03T13:45:29;13.90;99.90
48988;DHT22;34799;51.440;-2.534;2023-04-03T13:48:22;14.00;99.90
48988;DHT22;34799;51.440;-2.534;2023-04-03T13:51:00;13.90;99.90
48988;DHT22;34799;51.440;-2.534;2023-04-03T13:53:41;14.50;99.90
48988;DHT22;34799;51.440;-2.534;2023-04-03T13:56:26;14.10;99.90
48988;DHT22;34799;51.440;-2.534;2023-04-03T14:07:16;14.60;99.90
48988;DHT22;34799;51.440;-2.534;2023-04-03T14:09:47;14.50;99.70
48988;DHT22;34799;51.440;-2.534;2023-04-03T14:12:37;14.40;99.20
48988;DHT22;34799;51.440;-2.534;2023-04-03T14:15:24;14.50;99.60
48988;DHT22;34799;51.440;-2.534;2023-04-03T14:17:53;14.40;99.30
48988;DHT22;34799;51.440;-2.534;2023-04-03T14:20:39;14.60;99.90
48988;DHT22;34799;51.440;-2.534;2023-04-03T14:23:10;15.10;99.90
48988;DHT22;34799;51.440;-2.534;2023-04-03T14:26:18;14.60;99.80
48988;DHT22;34799;51.440;-2.534;2023-04-03T14:29:36;14.60;99.40
48988;DHT22;34799;51.440;-2.534;2023-04-03T14:32:29;14.50;99.60
48988;DHT22;34799;51.440;-2.534;2023-04-03T14:35:10;14.50;99.10
48988;DHT22;34799;51.440;-2.534;2023-04-03T14:37:45;14.50;99.90
48988;DHT22;34799;51.440;-2.534;2023-04-03T14:40:20;14.50;99.20
48988;DHT22;34799;51.440;-2.534;2023-04-03T14:42:49;14.60;99.60
48988;DHT22;34799;51.440;-2.534;2023-04-03T14:45:33;15.10;99.90
48988;DHT22;34799;51.440;-2.534;2023-04-03T14:48:24;15.40;99.90
48988;DHT22;34799;51.440;-2.534;2023-04-03T14:50:58;15.00;98.30
48988;DHT22;34799;51.440;-2.534;2023-04-03T14:53:34;14.90;99.20
48988;DHT22;34799;51.440;-2.534;2023-04-03T14:56:12;15.00;98.50
48988;DHT22;34799;51.440;-2.534;2023-04-03T14:59:16;15.10;99.20
48988;DHT22;34799;51.440;-2.534;2023-04-03T15:05:04;15.20;98.70
48988;DHT22;34799;51.440;-2.534;2023-04-03T15:08:24;15.10;98.20
48988;DHT22;34799;51.440;-2.534;2023-04-03T15:11:18;14.70;98.60
48988;DHT22;34799;51.440;-2.534;2023-04-03T15:14:05;14.60;99.00
48988;DHT22;34799;51.440;-2.534;2023-04-03T15:16:37;14.70;98.20
48988;DHT22;34799;51.440;-2.534;2023-04-03T15:19:04;14.70;98.60
48988;DHT22;34799;51.440;-2.534;2023-04-03T15:21:36;14.40;98.50
48988;DHT22;34799;51.440;-2.534;2023-04-03T15:24:04;14.90;98.50
48988;DHT22;34799;51.440;-2.534;2023-04-03T15:27:25;14.60;98.60
48988;DHT22;34799;51.440;-2.534;2023-04-03T15:30:06;14.90;98.70
48988;DHT22;34799;51.440;-2.534;2023-04-03T15:32:35;14.80;98.60
48988;DHT22;34799;51.440;-2.534;2023-04-03T15:35:05;15.10;98.50
48988;DHT22;34799;51.440;-2.534;2023-04-03T15:37:36;15.50;98.90
48988;DHT22;34799;51.440;-2.534;2023-04-03T15:40:05;15.60;97.70
48988;DHT22;34799;51.440;-2.534;2023-04-03T15:42:42;15.80;98.60
48988;DHT22;34799;51.440;-2.534;2023-04-03T15:45:40;16.00;98.20
48988;DHT22;34799;51.440;-2.534;2023-04-03T15:48:38;13.50;97.50
48988;DHT22;34799;51.440;-2.534;2023-04-03T15:51:42;15.20;96.60
48988;DHT22;34799;51.440;-2.534;2023-04-03T15:54:39;16.30;96.80
48988;DHT22;34799;51.440;-2.534;2023-04-03T15:57:12;16.80;96.90
48988;DHT22;34799;51.440;-2.534;2023-04-03T16:00:40;16.80;96.90
48988;DHT22;34799;51.440;-2.534;2023-04-03T16:03:12;16.90;97.20
48988;DHT22;34799;51.440;-2.534;2023-04-03T16:06:24;16.50;97.40
48988;DHT22;34799;51.440;-2.534;2023-04-03T16:09:31;16.60;96.80
48988;DHT22;34799;51.440;-2.534;2023-04-03T16:12:31;16.40;96.90
48988;DHT22;34799;51.440;-2.534;2023-04-03T16:16:02;15.60;96.90
48988;DHT22;34799;51.440;-2.534;2023-04-03T16:18:57;15.90;97.30
48988;DHT22;34799;51.440;-2.534;2023-04-03T16:21:33;15.60;97.60
48988;DHT22;34799;51.440;-2.534;2023-04-03T16:24:28;16.10;99.00
48988;DHT22;34799;51.440;-2.534;2023-04-03T16:26:59;16.20;97.20
48988;DHT22;34799;51.440;-2.534;2023-04-03T16:29:26;16.60;96.50
48988;DHT22;34799;51.440;-2.534;2023-04-03T16:31:57;16.80;97.70
48988;DHT22;34799;51.440;-2.534;2023-04-03T16:34:31;16.90;96.40
48988;DHT22;34799;51.440;-2.534;2023-04-03T16:37:18;17.00;96.30
48988;DHT22;34799;51.440;-2.534;2023-04-03T16:39:54;17.50;96.90
48988;DHT22;34799;51.440;-2.534;2023-04-03T16:42:24;17.10;96.60
48988;DHT22;34799;51.440;-2.534;2023-04-03T16:46:04;17.30;96.10
48988;DHT22;34799;51.440;-2.534;2023-04-03T16:48:37;17.40;96.50
48988;DHT22;34799;51.440;-2.534;2023-04-03T16:51:23;17.50;97.00
48988;DHT22;34799;51.440;-2.534;2023-04-03T16:54:05;17.80;97.30
48988;DHT22;34799;51.440;-2.534;2023-04-03T16:56:38;17.50;96.50
48988;DHT22;34799;51.440;-2.534;2023-04-03T16:59:23;17.60;97.10
48988;DHT22;34799;51.440;-2.534;2023-04-03T17:01:53;17.20;96.20
48988;DHT22;34799;51.440;-2.534;2023-04-03T17:04:26;17.20;96.60
48988;DHT22;34799;51.440;-2.534;2023-04-03T17:06:56;17.40;96.40
48988;DHT22;34799;51.440;-2.534;2023-04-03T17:09:25;17.30;96.20
48988;DHT22;34799;51.440;-2.534;2023-04-03T17:11:53;17.50;97.70
48988;DHT22;34799;51.440;-2.534;2023-04-03T17:16:50;17.30;95.90
48988;DHT22;34799;51.440;-2.534;2023-04-03T17:19:24;17.40;96.70
48988;DHT22;34799;51.440;-2.534;2023-04-03T17:21:58;17.50;97.50
48988;DHT22;34799;51.440;-2.534;2023-04-03T17:24:29;17.30;96.80
48988;DHT22;34799;51.440;-2.534;2023-04-03T17:26:57;16.90;96.40
48988;DHT22;34799;51.440;-2.534;2023-04-03T17:29:30;16.30;96.60
48988;DHT22;34799;51.440;-2.534;2023-04-03T17:31:58;15.90;97.20
48988;DHT22;34799;51.440;-2.534;2023-04-03T17:34:26;15.50;97.50
48988;DHT22;34799;51.440;-2.534;2023-04-03T17:39:32;15.60;97.50
48988;DHT22;34799;51.440;-2.534;2023-04-03T17:42:02;15.80;97.30
48988;DHT22;34799;51.440;-2.534;2023-04-03T17:44:30;15.90;97.40
48988;DHT22;34799;51.440;-2.534;2023-04-03T17:47:09;15.80;98.00
48988;DHT22;34799;51.440;-2.534;2023-04-03T17:49:37;15.40;98.10
48988;DHT22;34799;51.440;-2.534;2023-04-03T17:52:04;15.50;99.50
48988;DHT22;34799;51.440;-2.534;2023-04-03T17:54:32;15.00;98.80
48988;DHT22;34799;51.440;-2.534;2023-04-03T17:57:03;14.50;98.80
48988;DHT22;34799;51.440;-2.534;2023-04-03T17:59:31;14.40;99.40
48988;DHT22;34799;51.440;-2.534;2023-04-03T18:01:58;14.80;99.80
48988;DHT22;34799;51.440;-2.534;2023-04-03T18:04:28;13.50;99.90
48988;DHT22;34799;51.440;-2.534;2023-04-03T18:07:04;13.80;99.90
48988;DHT22;34799;51.440;-2.534;2023-04-03T18:12:06;13.20;99.90
48988;DHT22;34799;51.440;-2.534;2023-04-03T18:14:38;13.00;99.90
48988;DHT22;34799;51.440;-2.534;2023-04-03T18:17:11;13.30;99.90
48988;DHT22;34799;51.440;-2.534;2023-04-03T18:19:51;13.10;99.90
48988;DHT22;34799;51.440;-2.534;2023-04-03T18:22:29;12.90;99.90
48988;DHT22;34799;51.440;-2.534;2023-04-03T18:25:00;13.00;99.90
48988;DHT22;34799;51.440;-2.534;2023-04-03T18:30:07;12.90;99.90
48988;DHT22;34799;51.440;-2.534;2023-04-03T18:33:01;12.00;99.90
48988;DHT22;34799;51.440;-2.534;2023-04-03T18:35:30;12.80;99.90
48988;DHT22;34799;51.440;-2.534;2023-04-03T18:38:00;12.80;99.90
48988;DHT22;34799;51.440;-2.534;2023-04-03T18:40:32;12.80;99.90
48988;DHT22;34799;51.440;-2.534;2023-04-03T18:43:13;12.80;99.90
48988;DHT22;34799;51.440;-2.534;2023-04-03T18:45:44;12.80;99.90
48988;DHT22;34799;51.440;-2.534;2023-04-03T18:48:15;13.00;99.90
48988;DHT22;34799;51.440;-2.534;2023-04-03T18:50:43;12.50;99.90
48988;DHT22;34799;51.440;-2.534;2023-04-03T18:53:11;12.80;99.90
48988;DHT22;34799;51.440;-2.534;2023-04-03T18:55:45;12.40;99.90
48988;DHT22;34799;51.440;-2.534;2023-04-03T18:58:20;12.40;99.90
48988;DHT22;34799;51.440;-2.534;2023-04-03T19:00:56;12.30;99.90
48988;DHT22;34799;51.440;-2.534;2023-04-03T19:03:34;12.20;99.90
48988;DHT22;34799;51.440;-2.534;2023-04-03T19:06:03;11.80;99.90
48988;DHT22;34799;51.440;-2.534;2023-04-03T19:08:33;12.00;99.90
48988;DHT22;34799;51.440;-2.534;2023-04-03T19:11:03;11.90;99.90
48988;DHT22;34799;51.440;-2.534;2023-04-03T19:13:33;11.30;99.90
48988;DHT22;34799;51.440;-2.534;2023-04-03T19:16:35;11.60;99.90
48988;DHT22;34799;51.440;-2.534;2023-04-03T19:19:10;11.80;99.90
48988;DHT22;34799;51.440;-2.534;2023-04-03T19:21:39;11.70;99.90
48988;DHT22;34799;51.440;-2.534;2023-04-03T19:24:09;11.50;99.90
48988;DHT22;34799;51.440;-2.534;2023-04-03T19:26:39;11.40;99.90
48988;DHT22;34799;51.440;-2.534;2023-04-03T19:29:09;11.40;99.90
48988;DHT22;34799;51.440;-2.534;2023-04-03T19:34:09;11.20;99.90
48988;DHT22;34799;51.440;-2.534;2023-04-03T19:36:40;11.20;99.90
48988;DHT22;34799;51.440;-2.534;2023-04-03T19:41:40;11.00;99.90
48988;DHT22;34799;51.440;-2.534;2023-04-03T19:49:11;11.20;99.90
48988;DHT22;34799;51.440;-2.534;2023-04-03T19:51:40;10.70;99.90
48988;DHT22;34799;51.440;-2.534;2023-04-03T19:54:10;11.60;99.90
48988;DHT22;34799;51.440;-2.534;2023-04-03T19:56:38;9.40;99.90
48988;DHT22;34799;51.440;-2.534;2023-04-03T19:59:10;10.60;99.90
48988;DHT22;34799;51.440;-2.534;2023-04-03T20:01:39;10.80;99.90
48988;DHT22;34799;51.440;-2.534;2023-04-03T20:04:13;10.60;99.90
48988;DHT22;34799;51.440;-2.534;2023-04-03T20:06:40;10.60;99.90
48988;DHT22;34799;51.440;-2.534;2023-04-03T20:09:13;10.40;99.90
48988;DHT22;34799;51.440;-2.534;2023-04-03T20:11:42;10.10;99.90
48988;DHT22;34799;51.440;-2.534;2023-04-03T20:14:16;10.50;99.90
48988;DHT22;34799;51.440;-2.534;2023-04-03T20:19:17;10.20;99.90
48988;DHT22;34799;51.440;-2.534;2023-04-03T20:31:58;9.90;99.90
48988;DHT22;34799;51.440;-2.534;2023-04-03T20:34:52;9.80;99.90
48988;DHT22;34799;51.440;-2.534;2023-04-03T20:37:31;10.10;99.90
48988;DHT22;34799;51.440;-2.534;2023-04-03T20:42:32;10.00;99.90
48988;DHT22;34799;51.440;-2.534;2023-04-03T20:47:35;10.20;99.90
48988;DHT22;34799;51.440;-2.534;2023-04-03T20:52:55;9.70;99.90
48988;DHT22;34799;51.440;-2.534;2023-04-03T20:57:57;9.60;99.90
48988;DHT22;34799;51.440;-2.534;2023-04-03T21:02:59;9.40;99.90
48988;DHT22;34799;51.440;-2.534;2023-04-03T21:20:51;8.80;99.90
48988;DHT22;34799;51.440;-2.534;2023-04-03T21:24:00;8.70;99.90
48988;DHT22;34799;51.440;-2.534;2023-04-03T21:29:17;8.70;99.90
48988;DHT22;34799;51.440;-2.534;2023-04-03T21:31:59;8.90;99.90
48988;DHT22;34799;51.440;-2.534;2023-04-03T21:34:30;8.60;99.90